sensor_id;sensor_type;location;lat;lon;timestamp;P1;durP1;ratioP1;P2;durP2;ratioP2
2061;SDS011;11070;51.336;12.340;2023-08-12T00:00:59;11.33;;;6.73;;
2061;SDS011;11070;51.336;12.340;2023-08-12T00:03:24;7.80;;;5.97;;
2061;SDS011;11070;51.336;12.340;2023-08-12T00:05:50;6.07;;;5.20;;
2061;SDS011;11070;51.336;12.340;2023-08-12T00:08:17;7.82;;;4.78;;
2061;SDS011;11070;51.336;12.340;2023-08-12T00:10:42;10.40;;;4.90;;
2061;SDS011;11070;51.336;12.340;2023-08-12T00:13:08;7.40;;;4.83;;
2061;SDS011;11070;51.336;12.340;2023-08-12T00:15:34;9.00;;;5.03;;
2061;SDS011;11070;51.336;12.340;2023-08-12T00:18:00;11.13;;;4.70;;
2061;SDS011;11070;51.336;12.340;2023-08-12T00:20:26;6.57;;;4.80;;
2061;SDS011;11070;51.336;12.340;2023-08-12T00:22:51;6.60;;;4.67;;
2061;SDS011;11070;51.336;12.340;2023-08-12T00:25:17;6.97;;;5.13;;
2061;SDS011;11070;51.336;12.340;2023-08-12T00:27:43;8.43;;;5.20;;
2061;SDS011;11070;51.336;12.340;2023-08-12T00:30:08;6.20;;;5.10;;
2061;SDS011;11070;51.336;12.340;2023-08-12T00:32:34;6.70;;;5.20;;
2061;SDS011;11070;51.336;12.340;2023-08-12T00:35:00;6.30;;;5.07;;
2061;SDS011;11070;51.336;12.340;2023-08-12T00:37:26;7.20;;;5.80;;
2061;SDS011;11070;51.336;12.340;2023-08-12T00:39:51;6.47;;;5.30;;
2061;SDS011;11070;51.336;12.340;2023-08-12T00:42:17;9.23;;;5.63;;
2061;SDS011;11070;51.336;12.340;2023-08-12T00:44:43;8.03;;;5.37;;
2061;SDS011;11070;51.336;12.340;2023-08-12T00:47:08;5.40;;;4.90;;
2061;SDS011;11070;51.336;12.340;2023-08-12T00:49:34;12.60;;;5.30;;
2061;SDS011;11070;51.336;12.340;2023-08-12T00:52:01;6.38;;;5.40;;
2061;SDS011;11070;51.336;12.340;2023-08-12T00:54:27;11.97;;;6.10;;
2061;SDS011;11070;51.336;12.340;2023-08-12T00:56:53;13.43;;;5.80;;
2061;SDS011;11070;51.336;12.340;2023-08-12T00:59:19;7.20;;;5.80;;
2061;SDS011;11070;51.336;12.340;2023-08-12T01:01:46;6.55;;;5.95;;
2061;SDS011;11070;51.336;12.340;2023-08-12T01:04:13;6.22;;;5.63;;
2061;SDS011;11070;51.336;12.340;2023-08-12T01:06:38;8.00;;;5.80;;
2061;SDS011;11070;51.336;12.340;2023-08-12T01:09:05;10.00;;;6.10;;
2061;SDS011;11070;51.336;12.340;2023-08-12T01:14:17;6.57;;;5.72;;
2061;SDS011;11070;51.336;12.340;2023-08-12T01:16:49;11.32;;;6.00;;
2061;SDS011;11070;51.336;12.340;2023-08-12T01:19:27;10.88;;;6.72;;
2061;SDS011;11070;51.336;12.340;2023-08-12T01:21:59;10.07;;;7.10;;
2061;SDS011;11070;51.336;12.340;2023-08-12T01:24:38;7.03;;;6.33;;
2061;SDS011;11070;51.336;12.340;2023-08-12T01:27:06;6.90;;;6.20;;
2061;SDS011;11070;51.336;12.340;2023-08-12T01:29:35;9.57;;;6.50;;
2061;SDS011;11070;51.336;12.340;2023-08-12T01:35:18;8.57;;;6.90;;
2061;SDS011;11070;51.336;12.340;2023-08-12T01:38:06;7.00;;;6.10;;
2061;SDS011;11070;51.336;12.340;2023-08-12T01:40:35;9.93;;;6.87;;
2061;SDS011;11070;51.336;12.340;2023-08-12T01:43:02;7.60;;;6.83;;
2061;SDS011;11070;51.336;12.340;2023-08-12T01:45:32;11.60;;;7.07;;
2061;SDS011;11070;51.336;12.340;2023-08-12T01:47:58;7.63;;;6.83;;
2061;SDS011;11070;51.336;12.340;2023-08-12T01:50:24;9.93;;;6.73;;
2061;SDS011;11070;51.336;12.340;2023-08-12T01:52:50;12.67;;;6.67;;
2061;SDS011;11070;51.336;12.340;2023-08-12T01:55:16;7.77;;;7.00;;
2061;SDS011;11070;51.336;12.340;2023-08-12T01:57:42;9.57;;;7.10;;
2061;SDS011;11070;51.336;12.340;2023-08-12T02:00:08;7.97;;;7.17;;
2061;SDS011;11070;51.336;12.340;2023-08-12T02:02:34;8.70;;;7.90;;
2061;SDS011;11070;51.336;12.340;2023-08-12T02:05:00;10.63;;;7.50;;
2061;SDS011;11070;51.336;12.340;2023-08-12T02:07:25;12.53;;;7.00;;
2061;SDS011;11070;51.336;12.340;2023-08-12T02:09:51;9.93;;;7.60;;
2061;SDS011;11070;51.336;12.340;2023-08-12T02:12:16;16.60;;;7.43;;
2061;SDS011;11070;51.336;12.340;2023-08-12T02:14:42;7.53;;;6.83;;
2061;SDS011;11070;51.336;12.340;2023-08-12T02:17:08;7.57;;;6.87;;
2061;SDS011;11070;51.336;12.340;2023-08-12T02:19:33;9.47;;;7.47;;
2061;SDS011;11070;51.336;12.340;2023-08-12T02:22:00;7.93;;;7.13;;
2061;SDS011;11070;51.336;12.340;2023-08-12T02:24:26;7.93;;;7.13;;
2061;SDS011;11070;51.336;12.340;2023-08-12T02:26:52;10.53;;;8.00;;
2061;SDS011;11070;51.336;12.340;2023-08-12T02:29:18;14.20;;;7.93;;
2061;SDS011;11070;51.336;12.340;2023-08-12T02:31:44;9.10;;;7.73;;
2061;SDS011;11070;51.336;12.340;2023-08-12T02:34:10;8.30;;;7.50;;
2061;SDS011;11070;51.336;12.340;2023-08-12T02:36:35;9.07;;;7.37;;
2061;SDS011;11070;51.336;12.340;2023-08-12T02:39:01;7.97;;;7.17;;
2061;SDS011;11070;51.336;12.340;2023-08-12T02:41:27;8.77;;;7.87;;
2061;SDS011;11070;51.336;12.340;2023-08-12T02:43:52;12.40;;;7.60;;
2061;SDS011;11070;51.336;12.340;2023-08-12T02:46:18;9.27;;;7.40;;
2061;SDS011;11070;51.336;12.340;2023-08-12T02:48:45;9.33;;;7.60;;
2061;SDS011;11070;51.336;12.340;2023-08-12T02:51:12;7.77;;;7.07;;
2061;SDS011;11070;51.336;12.340;2023-08-12T02:53:38;14.27;;;7.67;;
2061;SDS011;11070;51.336;12.340;2023-08-12T02:56:04;11.40;;;7.50;;
2061;SDS011;11070;51.336;12.340;2023-08-12T02:58:29;8.83;;;8.03;;
2061;SDS011;11070;51.336;12.340;2023-08-12T03:00:55;7.83;;;7.03;;
2061;SDS011;11070;51.336;12.340;2023-08-12T03:03:21;10.80;;;7.67;;
2061;SDS011;11070;51.336;12.340;2023-08-12T03:05:47;10.00;;;7.80;;
2061;SDS011;11070;51.336;12.340;2023-08-12T03:08:13;7.77;;;6.97;;
2061;SDS011;11070;51.336;12.340;2023-08-12T03:10:38;7.87;;;7.27;;
2061;SDS011;11070;51.336;12.340;2023-08-12T03:13:04;8.23;;;7.50;;
2061;SDS011;11070;51.336;12.340;2023-08-12T03:15:29;7.90;;;7.10;;
2061;SDS011;11070;51.336;12.340;2023-08-12T03:17:55;8.33;;;7.00;;
2061;SDS011;11070;51.336;12.340;2023-08-12T03:20:21;8.30;;;7.50;;
2061;SDS011;11070;51.336;12.340;2023-08-12T03:22:47;8.53;;;7.23;;
2061;SDS011;11070;51.336;12.340;2023-08-12T03:25:13;8.30;;;7.30;;
2061;SDS011;11070;51.336;12.340;2023-08-12T03:27:40;7.60;;;6.90;;
2061;SDS011;11070;51.336;12.340;2023-08-12T03:30:06;11.27;;;7.13;;
2061;SDS011;11070;51.336;12.340;2023-08-12T03:32:33;7.87;;;7.13;;
2061;SDS011;11070;51.336;12.340;2023-08-12T03:34:58;12.93;;;7.80;;
2061;SDS011;11070;51.336;12.340;2023-08-12T03:37:24;10.40;;;7.20;;
2061;SDS011;11070;51.336;12.340;2023-08-12T03:39:50;9.07;;;6.93;;
2061;SDS011;11070;51.336;12.340;2023-08-12T03:42:16;9.57;;;6.83;;
2061;SDS011;11070;51.336;12.340;2023-08-12T03:44:42;8.10;;;7.40;;
2061;SDS011;11070;51.336;12.340;2023-08-12T03:47:08;8.00;;;7.30;;
2061;SDS011;11070;51.336;12.340;2023-08-12T03:49:34;7.47;;;6.80;;
2061;SDS011;11070;51.336;12.340;2023-08-12T03:52:00;8.83;;;7.20;;
2061;SDS011;11070;51.336;12.340;2023-08-12T03:54:25;7.87;;;7.17;;
2061;SDS011;11070;51.336;12.340;2023-08-12T03:56:51;8.03;;;7.23;;
2061;SDS011;11070;51.336;12.340;2023-08-12T03:59:17;9.47;;;7.20;;
2061;SDS011;11070;51.336;12.340;2023-08-12T04:01:42;7.63;;;7.03;;
2061;SDS011;11070;51.336;12.340;2023-08-12T04:04:08;8.10;;;7.50;;
2061;SDS011;11070;51.336;12.340;2023-08-12T04:06:34;7.37;;;6.83;;
2061;SDS011;11070;51.336;12.340;2023-08-12T04:08:59;7.83;;;7.23;;
2061;SDS011;11070;51.336;12.340;2023-08-12T04:11:25;14.63;;;7.00;;
2061;SDS011;11070;51.336;12.340;2023-08-12T04:13:50;8.60;;;7.27;;
2061;SDS011;11070;51.336;12.340;2023-08-12T04:16:16;9.00;;;6.83;;
2061;SDS011;11070;51.336;12.340;2023-08-12T04:18:42;10.70;;;7.30;;
2061;SDS011;11070;51.336;12.340;2023-08-12T04:21:08;7.73;;;7.00;;
2061;SDS011;11070;51.336;12.340;2023-08-12T04:23:33;8.83;;;6.57;;
2061;SDS011;11070;51.336;12.340;2023-08-12T04:25:59;8.50;;;6.53;;
2061;SDS011;11070;51.336;12.340;2023-08-12T04:28:25;7.20;;;6.70;;
2061;SDS011;11070;51.336;12.340;2023-08-12T04:30:50;7.80;;;7.10;;
2061;SDS011;11070;51.336;12.340;2023-08-12T04:33:17;7.47;;;6.77;;
2061;SDS011;11070;51.336;12.340;2023-08-12T04:35:44;7.40;;;6.80;;
2061;SDS011;11070;51.336;12.340;2023-08-12T04:38:10;9.33;;;6.40;;
2061;SDS011;11070;51.336;12.340;2023-08-12T04:40:39;6.97;;;6.47;;
2061;SDS011;11070;51.336;12.340;2023-08-12T04:43:05;7.00;;;6.47;;
2061;SDS011;11070;51.336;12.340;2023-08-12T04:45:32;7.00;;;6.40;;
2061;SDS011;11070;51.336;12.340;2023-08-12T04:47:57;6.80;;;6.20;;
2061;SDS011;11070;51.336;12.340;2023-08-12T04:50:24;8.13;;;7.23;;
2061;SDS011;11070;51.336;12.340;2023-08-12T04:52:50;8.43;;;6.73;;
2061;SDS011;11070;51.336;12.340;2023-08-12T04:55:16;7.70;;;7.00;;
2061;SDS011;11070;51.336;12.340;2023-08-12T04:57:42;7.03;;;6.50;;
2061;SDS011;11070;51.336;12.340;2023-08-12T05:00:08;7.60;;;6.90;;
2061;SDS011;11070;51.336;12.340;2023-08-12T05:02:34;7.67;;;6.77;;
2061;SDS011;11070;51.336;12.340;2023-08-12T05:05:00;6.77;;;6.27;;
2061;SDS011;11070;51.336;12.340;2023-08-12T05:07:26;6.90;;;6.40;;
2061;SDS011;11070;51.336;12.340;2023-08-12T05:09:52;7.07;;;6.47;;
2061;SDS011;11070;51.336;12.340;2023-08-12T05:12:17;6.40;;;6.00;;
2061;SDS011;11070;51.336;12.340;2023-08-12T05:14:43;6.80;;;6.20;;
2061;SDS011;11070;51.336;12.340;2023-08-12T05:17:09;6.23;;;5.83;;
2061;SDS011;11070;51.336;12.340;2023-08-12T05:19:35;9.23;;;6.90;;
2061;SDS011;11070;51.336;12.340;2023-08-12T05:22:00;6.53;;;6.03;;
2061;SDS011;11070;51.336;12.340;2023-08-12T05:24:26;6.60;;;6.10;;
2061;SDS011;11070;51.336;12.340;2023-08-12T05:26:52;8.00;;;7.20;;
2061;SDS011;11070;51.336;12.340;2023-08-12T05:29:17;6.70;;;6.10;;
2061;SDS011;11070;51.336;12.340;2023-08-12T05:31:43;7.10;;;6.60;;
2061;SDS011;11070;51.336;12.340;2023-08-12T05:34:09;7.50;;;6.80;;
2061;SDS011;11070;51.336;12.340;2023-08-12T05:36:35;6.90;;;6.20;;
2061;SDS011;11070;51.336;12.340;2023-08-12T05:39:01;7.03;;;6.37;;
2061;SDS011;11070;51.336;12.340;2023-08-12T05:41:28;7.10;;;6.50;;
2061;SDS011;11070;51.336;12.340;2023-08-12T05:43:54;7.10;;;6.40;;
2061;SDS011;11070;51.336;12.340;2023-08-12T05:46:19;6.53;;;5.93;;
2061;SDS011;11070;51.336;12.340;2023-08-12T05:48:45;6.70;;;6.20;;
2061;SDS011;11070;51.336;12.340;2023-08-12T05:51:11;7.57;;;6.87;;
2061;SDS011;11070;51.336;12.340;2023-08-12T05:53:37;7.90;;;7.10;;
2061;SDS011;11070;51.336;12.340;2023-08-12T05:56:03;7.20;;;6.50;;
2061;SDS011;11070;51.336;12.340;2023-08-12T05:58:28;7.10;;;6.50;;
2061;SDS011;11070;51.336;12.340;2023-08-12T06:00:54;6.67;;;6.17;;
2061;SDS011;11070;51.336;12.340;2023-08-12T06:03:20;7.53;;;6.80;;
2061;SDS011;11070;51.336;12.340;2023-08-12T06:05:46;6.80;;;6.20;;
2061;SDS011;11070;51.336;12.340;2023-08-12T06:08:12;7.50;;;6.80;;
2061;SDS011;11070;51.336;12.340;2023-08-12T06:10:38;7.93;;;7.30;;
2061;SDS011;11070;51.336;12.340;2023-08-12T06:13:04;8.40;;;7.10;;
2061;SDS011;11070;51.336;12.340;2023-08-12T06:15:30;9.07;;;7.73;;
2061;SDS011;11070;51.336;12.340;2023-08-12T06:17:56;6.80;;;6.30;;
2061;SDS011;11070;51.336;12.340;2023-08-12T06:20:25;14.47;;;6.13;;
2061;SDS011;11070;51.336;12.340;2023-08-12T06:22:51;5.80;;;5.40;;
2061;SDS011;11070;51.336;12.340;2023-08-12T06:25:17;6.50;;;5.93;;
2061;SDS011;11070;51.336;12.340;2023-08-12T06:27:43;5.87;;;5.47;;
2061;SDS011;11070;51.336;12.340;2023-08-12T06:30:10;5.80;;;5.40;;
2061;SDS011;11070;51.336;12.340;2023-08-12T06:32:36;5.60;;;5.20;;
2061;SDS011;11070;51.336;12.340;2023-08-12T06:35:02;6.53;;;5.87;;
2061;SDS011;11070;51.336;12.340;2023-08-12T06:37:28;6.67;;;5.97;;
2061;SDS011;11070;51.336;12.340;2023-08-12T06:39:54;5.77;;;5.30;;
2061;SDS011;11070;51.336;12.340;2023-08-12T06:42:20;6.23;;;5.73;;
2061;SDS011;11070;51.336;12.340;2023-08-12T06:44:49;6.90;;;5.30;;
2061;SDS011;11070;51.336;12.340;2023-08-12T06:47:22;6.70;;;6.10;;
2061;SDS011;11070;51.336;12.340;2023-08-12T06:49:48;5.60;;;5.20;;
2061;SDS011;11070;51.336;12.340;2023-08-12T06:52:13;6.43;;;5.90;;
2061;SDS011;11070;51.336;12.340;2023-08-12T06:54:39;5.73;;;5.33;;
2061;SDS011;11070;51.336;12.340;2023-08-12T06:57:05;6.13;;;5.57;;
2061;SDS011;11070;51.336;12.340;2023-08-12T06:59:30;5.90;;;5.50;;
2061;SDS011;11070;51.336;12.340;2023-08-12T07:01:56;7.33;;;6.63;;
2061;SDS011;11070;51.336;12.340;2023-08-12T07:04:22;6.03;;;5.43;;
2061;SDS011;11070;51.336;12.340;2023-08-12T07:06:48;6.00;;;5.50;;
2061;SDS011;11070;51.336;12.340;2023-08-12T07:09:13;5.83;;;5.37;;
2061;SDS011;11070;51.336;12.340;2023-08-12T07:11:39;5.27;;;4.87;;
2061;SDS011;11070;51.336;12.340;2023-08-12T07:14:05;5.53;;;5.23;;
2061;SDS011;11070;51.336;12.340;2023-08-12T07:16:31;6.20;;;5.70;;
2061;SDS011;11070;51.336;12.340;2023-08-12T07:18:56;7.23;;;5.67;;
2061;SDS011;11070;51.336;12.340;2023-08-12T07:21:22;6.13;;;5.73;;
2061;SDS011;11070;51.336;12.340;2023-08-12T07:23:48;5.07;;;4.70;;
2061;SDS011;11070;51.336;12.340;2023-08-12T07:26:13;6.70;;;6.10;;
2061;SDS011;11070;51.336;12.340;2023-08-12T07:28:39;7.73;;;5.90;;
2061;SDS011;11070;51.336;12.340;2023-08-12T07:31:05;6.50;;;6.00;;
2061;SDS011;11070;51.336;12.340;2023-08-12T07:33:31;7.03;;;6.33;;
2061;SDS011;11070;51.336;12.340;2023-08-12T07:35:56;6.23;;;5.63;;
2061;SDS011;11070;51.336;12.340;2023-08-12T07:38:22;6.30;;;5.80;;
2061;SDS011;11070;51.336;12.340;2023-08-12T07:40:48;6.60;;;5.70;;
2061;SDS011;11070;51.336;12.340;2023-08-12T07:43:14;6.17;;;5.67;;
2061;SDS011;11070;51.336;12.340;2023-08-12T07:45:40;8.20;;;5.73;;
2061;SDS011;11070;51.336;12.340;2023-08-12T07:48:06;5.90;;;5.50;;
2061;SDS011;11070;51.336;12.340;2023-08-12T07:50:32;7.70;;;5.70;;
2061;SDS011;11070;51.336;12.340;2023-08-12T07:52:58;6.23;;;5.63;;
2061;SDS011;11070;51.336;12.340;2023-08-12T07:55:23;6.87;;;5.87;;
2061;SDS011;11070;51.336;12.340;2023-08-12T07:57:49;7.43;;;5.83;;
2061;SDS011;11070;51.336;12.340;2023-08-12T08:00:14;5.93;;;5.20;;
2061;SDS011;11070;51.336;12.340;2023-08-12T08:02:40;6.10;;;5.50;;
2061;SDS011;11070;51.336;12.340;2023-08-12T08:05:06;6.20;;;5.80;;
2061;SDS011;11070;51.336;12.340;2023-08-12T08:07:32;5.73;;;5.23;;
2061;SDS011;11070;51.336;12.340;2023-08-12T08:09:58;5.83;;;5.33;;
2061;SDS011;11070;51.336;12.340;2023-08-12T08:12:24;5.27;;;4.77;;
2061;SDS011;11070;51.336;12.340;2023-08-12T08:14:49;5.50;;;5.10;;
2061;SDS011;11070;51.336;12.340;2023-08-12T08:17:15;6.07;;;5.47;;
2061;SDS011;11070;51.336;12.340;2023-08-12T08:19:41;5.90;;;5.40;;
2061;SDS011;11070;51.336;12.340;2023-08-12T08:22:07;6.23;;;5.60;;
2061;SDS011;11070;51.336;12.340;2023-08-12T08:24:32;5.97;;;5.37;;
2061;SDS011;11070;51.336;12.340;2023-08-12T08:26:58;5.90;;;5.40;;
2061;SDS011;11070;51.336;12.340;2023-08-12T08:29:24;5.77;;;5.27;;
2061;SDS011;11070;51.336;12.340;2023-08-12T08:31:49;5.87;;;5.30;;
2061;SDS011;11070;51.336;12.340;2023-08-12T08:34:15;4.87;;;4.53;;
2061;SDS011;11070;51.336;12.340;2023-08-12T08:36:41;5.90;;;5.40;;
2061;SDS011;11070;51.336;12.340;2023-08-12T08:39:06;5.93;;;5.43;;
2061;SDS011;11070;51.336;12.340;2023-08-12T08:41:32;6.70;;;5.30;;
2061;SDS011;11070;51.336;12.340;2023-08-12T08:44:03;5.97;;;5.57;;
2061;SDS011;11070;51.336;12.340;2023-08-12T08:46:33;5.70;;;5.30;;
2061;SDS011;11070;51.336;12.340;2023-08-12T08:48:59;5.47;;;4.97;;
2061;SDS011;11070;51.336;12.340;2023-08-12T08:51:31;5.77;;;5.37;;
2061;SDS011;11070;51.336;12.340;2023-08-12T08:53:57;5.90;;;5.50;;
2061;SDS011;11070;51.336;12.340;2023-08-12T08:56:23;6.10;;;5.70;;
2061;SDS011;11070;51.336;12.340;2023-08-12T08:58:49;6.47;;;5.87;;
2061;SDS011;11070;51.336;12.340;2023-08-12T09:01:17;7.60;;;5.67;;
2061;SDS011;11070;51.336;12.340;2023-08-12T09:03:47;6.33;;;5.73;;
2061;SDS011;11070;51.336;12.340;2023-08-12T09:06:14;6.00;;;5.60;;
2061;SDS011;11070;51.336;12.340;2023-08-12T09:08:40;5.60;;;5.20;;
2061;SDS011;11070;51.336;12.340;2023-08-12T09:11:10;6.30;;;5.70;;
2061;SDS011;11070;51.336;12.340;2023-08-12T09:13:38;14.23;;;6.30;;
2061;SDS011;11070;51.336;12.340;2023-08-12T09:16:04;6.07;;;5.53;;
2061;SDS011;11070;51.336;12.340;2023-08-12T09:18:29;8.67;;;5.60;;
2061;SDS011;11070;51.336;12.340;2023-08-12T09:20:56;6.27;;;5.77;;
2061;SDS011;11070;51.336;12.340;2023-08-12T09:23:22;6.20;;;5.63;;
2061;SDS011;11070;51.336;12.340;2023-08-12T09:25:48;6.00;;;5.17;;
2061;SDS011;11070;51.336;12.340;2023-08-12T09:28:13;6.13;;;5.63;;
2061;SDS011;11070;51.336;12.340;2023-08-12T09:30:40;5.80;;;5.40;;
2061;SDS011;11070;51.336;12.340;2023-08-12T09:33:07;6.43;;;5.80;;
2061;SDS011;11070;51.336;12.340;2023-08-12T09:38:12;6.10;;;5.60;;
2061;SDS011;11070;51.336;12.340;2023-08-12T09:40:38;6.03;;;5.53;;
2061;SDS011;11070;51.336;12.340;2023-08-12T09:43:04;5.87;;;5.37;;
2061;SDS011;11070;51.336;12.340;2023-08-12T09:45:31;5.63;;;5.23;;
2061;SDS011;11070;51.336;12.340;2023-08-12T09:47:58;5.60;;;5.20;;
2061;SDS011;11070;51.336;12.340;2023-08-12T09:50:25;6.10;;;5.70;;
2061;SDS011;11070;51.336;12.340;2023-08-12T09:52:52;5.03;;;4.73;;
2061;SDS011;11070;51.336;12.340;2023-08-12T09:55:19;5.67;;;5.00;;
2061;SDS011;11070;51.336;12.340;2023-08-12T09:57:53;5.77;;;5.20;;
2061;SDS011;11070;51.336;12.340;2023-08-12T10:00:20;7.60;;;5.30;;
2061;SDS011;11070;51.336;12.340;2023-08-12T10:02:48;5.10;;;4.80;;
2061;SDS011;11070;51.336;12.340;2023-08-12T10:05:27;5.50;;;5.10;;
2061;SDS011;11070;51.336;12.340;2023-08-12T10:07:56;6.13;;;5.67;;
2061;SDS011;11070;51.336;12.340;2023-08-12T10:10:23;5.80;;;5.40;;
2061;SDS011;11070;51.336;12.340;2023-08-12T10:12:50;6.13;;;5.63;;
2061;SDS011;11070;51.336;12.340;2023-08-12T10:15:16;5.60;;;5.10;;
2061;SDS011;11070;51.336;12.340;2023-08-12T10:17:42;6.93;;;5.87;;
2061;SDS011;11070;51.336;12.340;2023-08-12T10:20:11;5.40;;;5.10;;
2061;SDS011;11070;51.336;12.340;2023-08-12T10:22:38;5.87;;;5.37;;
2061;SDS011;11070;51.336;12.340;2023-08-12T10:25:06;5.63;;;5.30;;
2061;SDS011;11070;51.336;12.340;2023-08-12T10:27:36;5.70;;;5.40;;
2061;SDS011;11070;51.336;12.340;2023-08-12T10:30:05;5.97;;;5.57;;
2061;SDS011;11070;51.336;12.340;2023-08-12T10:32:33;8.17;;;5.77;;
2061;SDS011;11070;51.336;12.340;2023-08-12T10:34:59;5.57;;;5.17;;
2061;SDS011;11070;51.336;12.340;2023-08-12T10:37:26;5.87;;;5.47;;
2061;SDS011;11070;51.336;12.340;2023-08-12T10:39:53;5.70;;;5.30;;
2061;SDS011;11070;51.336;12.340;2023-08-12T10:45:09;6.03;;;5.63;;
2061;SDS011;11070;51.336;12.340;2023-08-12T10:47:40;6.27;;;5.70;;
2061;SDS011;11070;51.336;12.340;2023-08-12T10:50:20;6.60;;;6.00;;
2061;SDS011;11070;51.336;12.340;2023-08-12T10:52:47;7.87;;;6.13;;
2061;SDS011;11070;51.336;12.340;2023-08-12T10:55:25;6.67;;;6.27;;
2061;SDS011;11070;51.336;12.340;2023-08-12T10:57:53;6.70;;;6.00;;
2061;SDS011;11070;51.336;12.340;2023-08-12T11:00:20;6.57;;;6.17;;
2061;SDS011;11070;51.336;12.340;2023-08-12T11:02:49;8.50;;;7.50;;
2061;SDS011;11070;51.336;12.340;2023-08-12T11:05:20;6.73;;;6.10;;
2061;SDS011;11070;51.336;12.340;2023-08-12T11:07:47;6.73;;;6.23;;
2061;SDS011;11070;51.336;12.340;2023-08-12T11:10:27;9.20;;;6.00;;
2061;SDS011;11070;51.336;12.340;2023-08-12T11:12:58;7.57;;;6.87;;
2061;SDS011;11070;51.336;12.340;2023-08-12T11:15:31;7.40;;;6.80;;
2061;SDS011;11070;51.336;12.340;2023-08-12T11:18:02;6.90;;;6.40;;
2061;SDS011;11070;51.336;12.340;2023-08-12T11:20:31;6.67;;;6.17;;
2061;SDS011;11070;51.336;12.340;2023-08-12T11:22:58;7.03;;;6.43;;
2061;SDS011;11070;51.336;12.340;2023-08-12T11:25:25;6.90;;;6.13;;
2061;SDS011;11070;51.336;12.340;2023-08-12T11:27:53;6.77;;;6.27;;
2061;SDS011;11070;51.336;12.340;2023-08-12T11:30:19;6.60;;;6.00;;
2061;SDS011;11070;51.336;12.340;2023-08-12T11:32:47;6.37;;;5.87;;
2061;SDS011;11070;51.336;12.340;2023-08-12T11:35:15;5.87;;;5.40;;
2061;SDS011;11070;51.336;12.340;2023-08-12T11:37:45;5.60;;;5.20;;
2061;SDS011;11070;51.336;12.340;2023-08-12T11:40:12;6.67;;;6.23;;
2061;SDS011;11070;51.336;12.340;2023-08-12T11:42:42;5.83;;;5.43;;
2061;SDS011;11070;51.336;12.340;2023-08-12T11:45:11;5.80;;;5.40;;
2061;SDS011;11070;51.336;12.340;2023-08-12T11:47:38;5.10;;;4.73;;
2061;SDS011;11070;51.336;12.340;2023-08-12T11:50:06;4.90;;;4.50;;
2061;SDS011;11070;51.336;12.340;2023-08-12T11:52:33;5.40;;;4.90;;
2061;SDS011;11070;51.336;12.340;2023-08-12T11:55:01;4.63;;;4.33;;
2061;SDS011;11070;51.336;12.340;2023-08-12T11:57:27;4.97;;;4.67;;
2061;SDS011;11070;51.336;12.340;2023-08-12T12:00:06;3.90;;;3.70;;
2061;SDS011;11070;51.336;12.340;2023-08-12T12:02:45;3.90;;;3.70;;
2061;SDS011;11070;51.336;12.340;2023-08-12T12:05:15;3.53;;;3.20;;
2061;SDS011;11070;51.336;12.340;2023-08-12T12:07:43;3.40;;;3.30;;
2061;SDS011;11070;51.336;12.340;2023-08-12T12:10:18;3.60;;;3.37;;
2061;SDS011;11070;51.336;12.340;2023-08-12T12:12:45;3.67;;;3.47;;
2061;SDS011;11070;51.336;12.340;2023-08-12T12:15:12;3.90;;;3.53;;
2061;SDS011;11070;51.336;12.340;2023-08-12T12:17:42;4.00;;;3.80;;
2061;SDS011;11070;51.336;12.340;2023-08-12T12:20:10;3.67;;;3.37;;
2061;SDS011;11070;51.336;12.340;2023-08-12T12:22:36;3.50;;;3.20;;
2061;SDS011;11070;51.336;12.340;2023-08-12T12:25:06;3.83;;;3.43;;
2061;SDS011;11070;51.336;12.340;2023-08-12T12:27:33;3.23;;;3.03;;
2061;SDS011;11070;51.336;12.340;2023-08-12T12:30:00;4.30;;;3.30;;
2061;SDS011;11070;51.336;12.340;2023-08-12T12:32:25;3.50;;;3.30;;
2061;SDS011;11070;51.336;12.340;2023-08-12T12:34:51;3.50;;;3.20;;
2061;SDS011;11070;51.336;12.340;2023-08-12T12:37:18;3.20;;;3.10;;
2061;SDS011;11070;51.336;12.340;2023-08-12T12:39:44;3.50;;;3.30;;
2061;SDS011;11070;51.336;12.340;2023-08-12T12:42:10;3.50;;;3.30;;
2061;SDS011;11070;51.336;12.340;2023-08-12T12:44:36;3.43;;;3.13;;
2061;SDS011;11070;51.336;12.340;2023-08-12T12:47:02;3.33;;;3.13;;
2061;SDS011;11070;51.336;12.340;2023-08-12T12:49:28;3.47;;;3.27;;
2061;SDS011;11070;51.336;12.340;2023-08-12T12:51:54;4.03;;;3.33;;
2061;SDS011;11070;51.336;12.340;2023-08-12T12:54:19;4.00;;;3.77;;
2061;SDS011;11070;51.336;12.340;2023-08-12T12:56:45;3.40;;;3.20;;
2061;SDS011;11070;51.336;12.340;2023-08-12T12:59:11;3.13;;;3.03;;
2061;SDS011;11070;51.336;12.340;2023-08-12T13:01:36;3.20;;;3.00;;
2061;SDS011;11070;51.336;12.340;2023-08-12T13:04:02;3.60;;;3.30;;
2061;SDS011;11070;51.336;12.340;2023-08-12T13:06:28;3.70;;;3.40;;
2061;SDS011;11070;51.336;12.340;2023-08-12T13:08:54;3.10;;;2.90;;
2061;SDS011;11070;51.336;12.340;2023-08-12T13:11:20;3.83;;;3.07;;
2061;SDS011;11070;51.336;12.340;2023-08-12T13:13:45;3.03;;;2.83;;
2061;SDS011;11070;51.336;12.340;2023-08-12T13:16:11;4.40;;;3.30;;
2061;SDS011;11070;51.336;12.340;2023-08-12T13:18:36;4.10;;;3.53;;
2061;SDS011;11070;51.336;12.340;2023-08-12T13:21:02;3.37;;;3.17;;
2061;SDS011;11070;51.336;12.340;2023-08-12T13:23:28;2.90;;;2.80;;
2061;SDS011;11070;51.336;12.340;2023-08-12T13:25:53;3.20;;;3.07;;
2061;SDS011;11070;51.336;12.340;2023-08-12T13:28:19;3.47;;;3.17;;
2061;SDS011;11070;51.336;12.340;2023-08-12T13:30:45;3.50;;;3.20;;
2061;SDS011;11070;51.336;12.340;2023-08-12T13:33:11;3.37;;;3.10;;
2061;SDS011;11070;51.336;12.340;2023-08-12T13:35:37;7.40;;;3.27;;
2061;SDS011;11070;51.336;12.340;2023-08-12T13:38:03;4.13;;;3.23;;
2061;SDS011;11070;51.336;12.340;2023-08-12T13:40:28;3.50;;;3.20;;
2061;SDS011;11070;51.336;12.340;2023-08-12T13:42:54;4.10;;;3.30;;
2061;SDS011;11070;51.336;12.340;2023-08-12T13:45:20;4.10;;;3.13;;
2061;SDS011;11070;51.336;12.340;2023-08-12T13:47:46;2.97;;;2.77;;
2061;SDS011;11070;51.336;12.340;2023-08-12T13:50:12;2.93;;;2.77;;
2061;SDS011;11070;51.336;12.340;2023-08-12T13:52:38;3.07;;;2.80;;
2061;SDS011;11070;51.336;12.340;2023-08-12T13:55:05;3.30;;;3.10;;
2061;SDS011;11070;51.336;12.340;2023-08-12T13:57:31;3.20;;;3.00;;
2061;SDS011;11070;51.336;12.340;2023-08-12T13:59:57;3.23;;;3.03;;
2061;SDS011;11070;51.336;12.340;2023-08-12T14:02:23;3.87;;;3.40;;
2061;SDS011;11070;51.336;12.340;2023-08-12T14:04:49;3.73;;;3.00;;
2061;SDS011;11070;51.336;12.340;2023-08-12T14:07:14;3.17;;;2.83;;
2061;SDS011;11070;51.336;12.340;2023-08-12T14:09:41;3.60;;;3.10;;
2061;SDS011;11070;51.336;12.340;2023-08-12T14:12:07;3.43;;;3.10;;
2061;SDS011;11070;51.336;12.340;2023-08-12T14:14:33;3.20;;;2.90;;
2061;SDS011;11070;51.336;12.340;2023-08-12T14:16:58;3.60;;;2.80;;
2061;SDS011;11070;51.336;12.340;2023-08-12T14:19:24;3.10;;;2.80;;
2061;SDS011;11070;51.336;12.340;2023-08-12T14:21:50;4.70;;;2.63;;
2061;SDS011;11070;51.336;12.340;2023-08-12T14:24:15;2.90;;;2.60;;
2061;SDS011;11070;51.336;12.340;2023-08-12T14:26:41;3.40;;;3.20;;
2061;SDS011;11070;51.336;12.340;2023-08-12T14:29:07;2.83;;;2.73;;
2061;SDS011;11070;51.336;12.340;2023-08-12T14:31:33;2.90;;;2.73;;
2061;SDS011;11070;51.336;12.340;2023-08-12T14:33:59;3.20;;;2.90;;
2061;SDS011;11070;51.336;12.340;2023-08-12T14:36:26;4.17;;;3.10;;
2061;SDS011;11070;51.336;12.340;2023-08-12T14:38:52;3.00;;;2.90;;
2061;SDS011;11070;51.336;12.340;2023-08-12T14:41:17;5.27;;;3.40;;
2061;SDS011;11070;51.336;12.340;2023-08-12T14:43:43;3.23;;;3.03;;
2061;SDS011;11070;51.336;12.340;2023-08-12T14:46:09;3.73;;;3.03;;
2061;SDS011;11070;51.336;12.340;2023-08-12T14:48:34;3.40;;;2.63;;
2061;SDS011;11070;51.336;12.340;2023-08-12T14:51:01;3.03;;;2.93;;
2061;SDS011;11070;51.336;12.340;2023-08-12T14:53:27;2.80;;;2.70;;